createdAt,value
2019-03-06T00:00:59.110Z,100363.61
2019-03-06T00:03:28.547Z,100364.05
2019-03-06T00:05:57.955Z,100365.55
2019-03-06T00:08:27.388Z,100366.88
2019-03-06T00:10:56.791Z,100367.33
2019-03-06T00:13:26.231Z,100373.02
2019-03-06T00:15:55.654Z,100373.54
2019-03-06T00:18:25.104Z,100375.32
2019-03-06T00:20:54.512Z,100376.36
2019-03-06T00:23:23.912Z,100377.70
2019-03-06T00:25:53.282Z,100373.13
2019-03-06T00:28:22.719Z,100381.48
2019-03-06T00:30:52.124Z,100380.72
2019-03-06T00:33:21.560Z,100383.70
2019-03-06T00:35:52.536Z,100386.22
2019-03-06T00:38:22.149Z,100387.17
2019-03-06T00:40:53.215Z,100390.77
2019-03-06T00:43:22.672Z,100387.02
2019-03-06T00:45:52.075Z,100398.64
2019-03-06T00:48:21.569Z,100396.53
2019-03-06T00:50:51.160Z,100398.64
2019-03-06T00:53:20.665Z,100393.14
2019-03-06T00:55:50.158Z,100397.87
2019-03-06T00:58:19.619Z,100399.80
2019-03-06T01:00:49.045Z,100402.82
2019-03-06T01:03:18.428Z,100400.91
2019-03-06T01:05:47.852Z,100406.85
2019-03-06T01:08:17.313Z,100409.44
2019-03-06T01:10:46.797Z,100411.25
2019-03-06T01:13:16.255Z,100419.41
2019-03-06T01:15:45.684Z,100421.58
2019-03-06T01:18:15.152Z,100422.55
2019-03-06T01:20:44.645Z,100421.29
2019-03-06T01:23:14.118Z,100418.22
2019-03-06T01:25:43.775Z,100417.89
2019-03-06T01:28:13.237Z,100429.04
2019-03-06T01:30:42.734Z,100424.80
2019-03-06T01:33:29.798Z,100424.27
2019-03-06T01:36:06.640Z,100435.91
2019-03-06T01:38:37.737Z,100436.02
2019-03-06T01:41:17.736Z,100439.52
2019-03-06T01:43:48.841Z,100440.81
2019-03-06T01:46:18.346Z,100444.80
2019-03-06T01:48:47.799Z,100442.98
2019-03-06T01:51:17.284Z,100449.48
2019-03-06T01:53:46.743Z,100454.84
2019-03-06T01:56:16.241Z,100458.52
2019-03-06T01:58:45.704Z,100460.77
2019-03-06T02:01:15.266Z,100456.12
2019-03-06T02:03:44.730Z,100461.80
2019-03-06T02:06:14.220Z,100461.32
2019-03-06T02:08:43.613Z,100466.48
2019-03-06T02:11:13.034Z,100460.03
2019-03-06T02:13:42.434Z,100471.21
2019-03-06T02:16:11.853Z,100462.28
2019-03-06T02:18:41.524Z,100466.05
2019-03-06T02:21:10.944Z,100471.66
2019-03-06T02:23:40.340Z,100485.86
2019-03-06T02:26:09.770Z,100490.55
2019-03-06T02:28:39.161Z,100488.00
2019-03-06T02:31:08.664Z,100485.48
2019-03-06T02:33:38.209Z,100486.47
2019-03-06T02:36:07.651Z,100489.91
2019-03-06T02:38:37.505Z,100490.89
2019-03-06T02:41:06.940Z,100491.92
2019-03-06T02:43:36.542Z,100492.06
2019-03-06T02:46:05.949Z,100489.92
2019-03-06T02:48:35.688Z,100506.77
2019-03-06T02:51:05.247Z,100506.36
2019-03-06T02:53:34.673Z,100505.62
2019-03-06T02:56:04.245Z,100515.61
2019-03-06T02:58:38.251Z,100517.30
2019-03-06T03:01:12.057Z,100511.46
2019-03-06T03:03:58.838Z,100519.75
2019-03-06T03:06:29.870Z,100523.62
2019-03-06T03:08:59.290Z,100528.03
2019-03-06T03:11:28.685Z,100527.08
2019-03-06T03:13:58.278Z,100532.31
2019-03-06T03:16:27.751Z,100534.55
2019-03-06T03:18:57.246Z,100538.36
2019-03-06T03:21:27.097Z,100540.62
2019-03-06T03:23:56.707Z,100539.34
2019-03-06T03:26:26.165Z,100551.90
2019-03-06T03:28:55.671Z,100549.38
2019-03-06T03:31:25.069Z,100554.55
2019-03-06T03:33:54.506Z,100557.97
2019-03-06T03:36:23.908Z,100558.35
2019-03-06T03:38:53.401Z,100564.46
2019-03-06T03:41:23.773Z,100574.66
2019-03-06T03:43:53.206Z,100575.56
2019-03-06T03:46:22.599Z,100575.19
2019-03-06T03:48:52.018Z,100577.27
2019-03-06T03:51:21.480Z,100577.27
2019-03-06T03:53:51.182Z,100573.30
2019-03-06T03:56:20.579Z,100584.88
2019-03-06T03:58:50.009Z,100585.70
2019-03-06T04:01:19.415Z,100579.81
2019-03-06T04:03:48.840Z,100592.66
2019-03-06T04:06:18.517Z,100594.39
2019-03-06T04:08:48.014Z,100594.80
2019-03-06T04:11:17.408Z,100599.61
2019-03-06T04:13:46.815Z,100599.30
2019-03-06T04:16:16.249Z,100601.38
2019-03-06T04:18:45.991Z,100601.88
2019-03-06T04:21:15.420Z,100611.45
2019-03-06T04:23:44.814Z,100618.94
2019-03-06T04:26:14.175Z,100626.39
2019-03-06T04:28:43.622Z,100624.34
2019-03-06T04:31:13.138Z,100629.06
2019-03-06T04:33:42.505Z,100628.69
2019-03-06T04:36:11.848Z,100626.20
2019-03-06T04:38:41.220Z,100626.79
2019-03-06T04:41:10.559Z,100632.70
2019-03-06T04:43:40.207Z,100639.39
2019-03-06T04:46:09.552Z,100644.17
2019-03-06T04:48:38.918Z,100654.20
2019-03-06T04:51:08.266Z,100649.92
2019-03-06T04:53:37.636Z,100653.26
2019-03-06T04:56:07.436Z,100653.34
2019-03-06T04:58:36.776Z,100663.31
2019-03-06T05:01:06.455Z,100665.98
2019-03-06T05:03:35.798Z,100660.41
2019-03-06T05:06:05.628Z,100658.24
2019-03-06T05:08:35.215Z,100661.76
2019-03-06T05:11:04.594Z,100667.94
2019-03-06T05:13:33.934Z,100674.68
2019-03-06T05:16:03.322Z,100674.85
2019-03-06T05:18:34.286Z,100676.22
2019-03-06T05:21:03.655Z,100679.24
2019-03-06T05:23:33.060Z,100682.05
2019-03-06T05:26:02.744Z,100690.16
2019-03-06T05:28:32.089Z,100693.26
2019-03-06T05:31:01.461Z,100685.17
2019-03-06T05:33:30.804Z,100688.11
2019-03-06T05:36:12.228Z,100686.45
2019-03-06T05:38:44.826Z,100701.02
2019-03-06T05:41:14.188Z,100702.38
2019-03-06T05:43:43.541Z,100701.09
2019-03-06T05:46:12.914Z,100704.22
2019-03-06T05:48:42.324Z,100700.95
2019-03-06T05:51:11.767Z,100707.75
2019-03-06T05:53:41.193Z,100710.69
2019-03-06T05:56:10.643Z,100708.09
2019-03-06T05:58:39.988Z,100709.16
2019-03-06T06:01:09.398Z,100715.96
2019-03-06T06:03:38.740Z,100712.07
2019-03-06T06:06:08.115Z,100718.95
2019-03-06T06:08:37.456Z,100716.95
2019-03-06T06:11:06.894Z,100713.86
2019-03-06T06:13:36.682Z,100718.22
2019-03-06T06:16:06.502Z,100725.35
2019-03-06T06:18:35.864Z,100731.30
2019-03-06T06:21:09.339Z,100735.58
2019-03-06T06:23:43.113Z,100732.92
2019-03-06T06:26:12.588Z,100738.27
2019-03-06T06:28:41.933Z,100743.62
2019-03-06T06:31:11.310Z,100744.16
2019-03-06T06:33:40.689Z,100744.13
2019-03-06T06:36:10.034Z,100737.02
2019-03-06T06:38:39.422Z,100745.11
2019-03-06T06:41:08.770Z,100741.23
2019-03-06T06:43:38.182Z,100742.59
2019-03-06T06:46:07.728Z,100738.25
2019-03-06T06:48:37.387Z,100743.80
2019-03-06T06:51:13.201Z,100740.65
2019-03-06T06:53:46.729Z,100746.05
2019-03-06T06:56:34.349Z,100741.58
2019-03-06T06:59:07.465Z,100753.11
2019-03-06T07:01:56.380Z,100759.13
2019-03-06T07:04:59.060Z,100764.45
2019-03-06T07:07:35.973Z,100764.09
2019-03-06T07:10:25.216Z,100763.38
2019-03-06T07:13:05.293Z,100755.87
2019-03-06T07:15:54.179Z,100759.56
2019-03-06T07:18:25.164Z,100758.64
2019-03-06T07:20:58.907Z,100760.18
2019-03-06T07:23:36.021Z,100765.69
2019-03-06T07:26:22.117Z,100766.45
2019-03-06T07:28:58.791Z,100768.93
2019-03-06T07:31:41.870Z,100765.23
2019-03-06T07:34:12.863Z,100766.02
2019-03-06T07:36:49.741Z,100769.38
2019-03-06T07:39:21.794Z,100758.58
2019-03-06T07:41:58.485Z,100764.48
2019-03-06T07:44:45.504Z,100762.30
2019-03-06T07:47:22.199Z,100766.19
2019-03-06T07:49:58.972Z,100772.98
2019-03-06T07:52:35.935Z,100771.69
2019-03-06T07:55:21.936Z,100777.72
2019-03-06T07:58:16.723Z,100773.25
2019-03-06T08:00:46.065Z,100776.65
2019-03-06T08:03:16.684Z,100782.17
2019-03-06T08:05:46.101Z,100777.43
2019-03-06T08:08:15.481Z,100782.00
2019-03-06T08:10:44.832Z,100780.50
2019-03-06T08:13:18.803Z,100785.79
2019-03-06T08:15:49.794Z,100784.02
2019-03-06T08:18:23.456Z,100781.44
2019-03-06T08:21:12.301Z,100784.57
2019-03-06T08:23:54.764Z,100783.06
2019-03-06T08:26:24.600Z,100781.89
2019-03-06T08:28:54.320Z,100790.48
2019-03-06T08:31:25.306Z,100785.86
2019-03-06T08:33:54.694Z,100785.02
2019-03-06T08:36:25.105Z,100784.53
2019-03-06T08:38:54.481Z,100791.20
2019-03-06T08:41:23.820Z,100792.05
2019-03-06T08:43:53.280Z,100791.62
2019-03-06T08:46:36.184Z,100794.25
2019-03-06T08:49:19.210Z,100793.95
2019-03-06T08:51:55.974Z,100788.91
2019-03-06T08:54:29.954Z,100794.62
2019-03-06T08:57:03.709Z,100794.03
2019-03-06T08:59:49.808Z,100791.86
2019-03-06T09:02:21.062Z,100791.25
2019-03-06T09:04:52.072Z,100788.94
2019-03-06T09:07:26.017Z,100789.33
2019-03-06T09:10:02.521Z,100774.78
2019-03-06T09:12:39.307Z,100782.82
2019-03-06T09:15:29.985Z,100771.39
2019-03-06T09:18:09.828Z,100776.30
2019-03-06T09:20:43.263Z,100773.44
2019-03-06T09:23:32.313Z,100763.66
2019-03-06T09:26:04.087Z,100763.64
2019-03-06T09:28:38.465Z,100763.23
2019-03-06T09:31:24.416Z,100757.73
2019-03-06T09:34:07.574Z,100757.39
2019-03-06T09:36:55.031Z,100766.59
2019-03-06T09:39:31.938Z,100769.37
2019-03-06T09:42:11.818Z,100768.19
2019-03-06T09:44:45.752Z,100761.63
2019-03-06T09:47:16.820Z,100765.23
2019-03-06T09:49:47.862Z,100753.88
2019-03-06T09:52:19.154Z,100750.66
2019-03-06T09:54:55.036Z,100753.50
2019-03-06T09:57:31.656Z,100750.05
2019-03-06T10:00:18.317Z,100749.55
2019-03-06T10:02:52.058Z,100738.48
2019-03-06T10:05:25.952Z,100741.02
2019-03-06T10:08:08.933Z,100743.39
2019-03-06T10:10:47.734Z,100744.75
2019-03-06T10:13:18.515Z,100735.56
2019-03-06T10:15:49.507Z,100731.28
2019-03-06T10:18:38.659Z,100726.05
2019-03-06T10:21:08.004Z,100719.92
2019-03-06T10:23:37.402Z,100718.21
2019-03-06T10:26:06.763Z,100719.78
2019-03-06T10:28:36.737Z,100714.32
2019-03-06T10:31:06.403Z,100722.41
2019-03-06T10:33:35.794Z,100718.48
2019-03-06T10:36:05.561Z,100723.04
2019-03-06T10:38:35.045Z,100712.41
2019-03-06T10:41:04.432Z,100699.58
2019-03-06T10:43:34.166Z,100696.25
2019-03-06T10:46:03.881Z,100700.33
2019-03-06T10:48:33.702Z,100700.03
2019-03-06T10:51:03.099Z,100696.82
2019-03-06T10:53:41.054Z,100701.63
2019-03-06T10:56:03.981Z,100699.02
2019-03-06T10:58:33.341Z,100711.66
2019-03-06T11:01:02.824Z,100708.77
2019-03-06T11:03:39.912Z,100699.09
2019-03-06T11:06:09.942Z,100705.14
2019-03-06T11:08:39.293Z,100689.70
2019-03-06T11:11:08.958Z,100687.30
2019-03-06T11:13:38.309Z,100685.26
2019-03-06T11:16:08.594Z,100682.07
2019-03-06T11:18:37.975Z,100677.50
2019-03-06T11:21:07.744Z,100661.36
2019-03-06T11:23:37.099Z,100673.14
2019-03-06T11:26:07.463Z,100674.34
2019-03-06T11:28:36.952Z,100657.10
2019-03-06T11:31:06.408Z,100662.56
2019-03-06T11:33:36.946Z,100664.41
2019-03-06T11:36:06.694Z,100642.18
2019-03-06T11:38:36.955Z,100643.59
2019-03-06T11:41:06.903Z,100635.43
2019-03-06T11:43:36.581Z,100647.31
2019-03-06T11:46:06.210Z,100632.22
2019-03-06T11:48:35.561Z,100638.95
2019-03-06T11:51:05.878Z,100627.09
2019-03-06T11:53:35.948Z,100621.40
2019-03-06T11:56:05.846Z,100618.22
2019-03-06T11:58:35.269Z,100625.24
2019-03-06T12:01:07.962Z,100616.59
2019-03-06T12:03:37.714Z,100614.27
2019-03-06T12:06:07.283Z,100616.13
2019-03-06T12:08:45.676Z,100605.40
2019-03-06T12:11:08.649Z,100601.21
2019-03-06T12:13:38.011Z,100615.61
2019-03-06T12:16:07.737Z,100604.69
2019-03-06T12:18:37.093Z,100589.05
2019-03-06T12:21:06.920Z,100586.48
2019-03-06T12:23:36.365Z,100581.33
2019-03-06T12:26:05.717Z,100565.27
2019-03-06T12:28:35.100Z,100560.88
2019-03-06T12:31:07.467Z,100556.50
2019-03-06T12:33:36.952Z,100549.77
2019-03-06T12:36:06.645Z,100543.62
2019-03-06T12:38:36.046Z,100543.77
2019-03-06T12:41:05.392Z,100530.65
2019-03-06T12:43:35.015Z,100531.97
2019-03-06T12:46:10.321Z,100523.77
2019-03-06T12:48:39.970Z,100522.03
2019-03-06T12:51:09.482Z,100511.05
2019-03-06T12:53:38.872Z,100511.85
2019-03-06T12:56:08.404Z,100501.84
2019-03-06T12:58:37.948Z,100502.22
2019-03-06T13:01:07.359Z,100498.61
2019-03-06T13:03:36.801Z,100503.05
2019-03-06T13:06:06.691Z,100500.45
2019-03-06T13:08:36.467Z,100507.36
2019-03-06T13:11:05.861Z,100501.59
2019-03-06T13:13:36.050Z,100490.95
2019-03-06T13:16:05.392Z,100496.43
2019-03-06T13:18:34.866Z,100485.98
2019-03-06T13:21:05.249Z,100484.17
2019-03-06T13:23:34.825Z,100472.02
2019-03-06T13:26:10.232Z,100474.80
2019-03-06T13:28:35.330Z,100465.84
2019-03-06T13:31:04.826Z,100470.03
2019-03-06T13:33:44.796Z,100465.95
2019-03-06T13:36:14.217Z,100470.65
2019-03-06T13:38:43.672Z,100470.84
2019-03-06T13:41:14.485Z,100464.57
2019-03-06T13:43:44.519Z,100463.11
2019-03-06T13:46:13.972Z,100459.25
2019-03-06T13:48:43.359Z,100453.55
2019-03-06T13:51:12.776Z,100449.55
2019-03-06T13:53:42.166Z,100438.98
2019-03-06T13:56:11.556Z,100441.87
2019-03-06T13:58:40.936Z,100424.81
2019-03-06T14:01:10.331Z,100429.34
2019-03-06T14:03:39.816Z,100429.28
2019-03-06T14:06:09.624Z,100431.78
2019-03-06T14:08:39.065Z,100430.52
2019-03-06T14:11:08.413Z,100423.51
2019-03-06T14:13:38.093Z,100434.84
2019-03-06T14:16:07.445Z,100440.13
2019-03-06T14:18:37.167Z,100439.72
2019-03-06T14:21:06.538Z,100418.43
2019-03-06T14:23:35.883Z,100420.55
2019-03-06T14:26:06.795Z,100412.49
2019-03-06T14:28:36.254Z,100401.20
2019-03-06T14:31:06.085Z,100393.75
2019-03-06T14:33:35.435Z,100396.71
2019-03-06T14:36:04.891Z,100391.97
2019-03-06T14:38:34.253Z,100382.20
2019-03-06T14:41:03.633Z,100385.80
2019-03-06T14:43:33.018Z,100380.39
2019-03-06T14:46:02.394Z,100384.47
2019-03-06T14:48:31.747Z,100382.45
2019-03-06T14:51:01.132Z,100393.56
2019-03-06T14:53:30.555Z,100381.59
2019-03-06T14:55:59.929Z,100385.05
2019-03-06T14:58:29.284Z,100389.28
2019-03-06T15:00:58.667Z,100381.88
2019-03-06T15:03:28.013Z,100385.20
2019-03-06T15:05:57.395Z,100379.34
2019-03-06T15:08:26.745Z,100374.91
2019-03-06T15:10:56.119Z,100370.38
2019-03-06T15:13:25.468Z,100366.61
2019-03-06T15:15:55.041Z,100347.30
2019-03-06T15:18:24.387Z,100342.16
2019-03-06T15:20:53.761Z,100330.12
2019-03-06T15:23:23.108Z,100331.90
2019-03-06T15:25:52.491Z,100332.83
2019-03-06T15:28:21.918Z,100313.39
2019-03-06T15:30:51.368Z,100318.28
2019-03-06T15:33:20.721Z,100312.06
2019-03-06T15:35:50.102Z,100307.81
2019-03-06T15:38:19.453Z,100298.41
2019-03-06T15:40:48.862Z,100291.70
2019-03-06T15:43:19.782Z,100295.39
2019-03-06T15:45:49.177Z,100294.77
2019-03-06T15:48:18.554Z,100284.01
2019-03-06T15:50:47.901Z,100287.52
2019-03-06T15:53:24.162Z,100285.88
2019-03-06T15:55:48.342Z,100283.95
2019-03-06T15:58:17.731Z,100282.95
2019-03-06T16:00:47.085Z,100281.16
2019-03-06T16:03:16.476Z,100280.74
2019-03-06T16:05:45.825Z,100274.77
2019-03-06T16:08:15.204Z,100276.54
2019-03-06T16:10:44.833Z,100269.77
2019-03-06T16:13:14.213Z,100263.41
2019-03-06T16:15:43.641Z,100256.80
2019-03-06T16:18:13.037Z,100265.70
2019-03-06T16:20:42.380Z,100269.48
2019-03-06T16:23:11.825Z,100265.73
2019-03-06T16:25:41.434Z,100272.31
2019-03-06T16:28:10.815Z,100267.51
2019-03-06T16:30:40.161Z,100271.81
2019-03-06T16:33:09.765Z,100267.27
2019-03-06T16:35:39.118Z,100257.02
2019-03-06T16:38:08.948Z,100255.41
2019-03-06T16:40:38.364Z,100248.61
2019-03-06T16:43:07.743Z,100249.19
2019-03-06T16:45:37.164Z,100239.16
2019-03-06T16:48:06.888Z,100238.20
2019-03-06T16:50:36.234Z,100233.18
2019-03-06T16:53:06.033Z,100232.75
2019-03-06T16:55:35.376Z,100234.25
2019-03-06T16:58:05.023Z,100235.23
2019-03-06T17:00:35.305Z,100231.32
2019-03-06T17:03:05.753Z,100236.02
2019-03-06T17:05:35.192Z,100234.72
2019-03-06T17:08:04.690Z,100229.98
2019-03-06T17:10:36.172Z,100224.32
2019-03-06T17:13:05.597Z,100233.66
2019-03-06T17:15:34.975Z,100229.33
2019-03-06T17:18:04.321Z,100224.57
2019-03-06T17:20:37.146Z,100227.17
2019-03-06T17:23:06.915Z,100217.47
2019-03-06T17:25:36.292Z,100224.19
2019-03-06T17:28:05.843Z,100227.06
2019-03-06T17:30:36.120Z,100210.22
2019-03-06T17:33:10.973Z,100206.30
2019-03-06T17:35:40.347Z,100193.06
2019-03-06T17:38:14.511Z,100188.19
2019-03-06T17:40:44.680Z,100175.66
2019-03-06T17:43:14.108Z,100175.66
2019-03-06T17:45:43.839Z,100165.30
2019-03-06T17:48:13.176Z,100164.52
2019-03-06T17:50:42.565Z,100174.16
2019-03-06T17:53:11.911Z,100178.47
2019-03-06T17:55:41.285Z,100187.22
2019-03-06T17:58:10.636Z,100185.20
2019-03-06T18:00:44.720Z,100170.67
2019-03-06T18:03:16.173Z,100171.98
2019-03-06T18:05:45.545Z,100168.38
2019-03-06T18:08:14.888Z,100173.14
2019-03-06T18:10:44.340Z,100180.58
2019-03-06T18:13:13.866Z,100172.60
2019-03-06T18:15:44.493Z,100171.42
2019-03-06T18:18:14.039Z,100166.94
2019-03-06T18:20:43.412Z,100158.31
2019-03-06T18:23:12.774Z,100156.24
2019-03-06T18:25:42.153Z,100147.30
2019-03-06T18:28:11.574Z,100143.55
2019-03-06T18:30:41.037Z,100137.88
2019-03-06T18:33:10.548Z,100137.92
2019-03-06T18:35:39.920Z,100141.76
2019-03-06T18:38:09.265Z,100132.53
2019-03-06T18:40:38.952Z,100132.83
2019-03-06T18:43:09.800Z,100133.67
2019-03-06T18:45:39.179Z,100128.73
2019-03-06T18:48:08.526Z,100132.61
2019-03-06T18:50:38.141Z,100129.54
2019-03-06T18:53:07.561Z,100114.67
2019-03-06T18:55:37.201Z,100113.27
2019-03-06T18:58:06.919Z,100114.56
2019-03-06T19:00:36.376Z,100106.06
2019-03-06T19:03:05.731Z,100102.61
2019-03-06T19:05:36.961Z,100093.80
2019-03-06T19:08:06.950Z,100091.84
2019-03-06T19:10:37.014Z,100082.34
2019-03-06T19:13:06.928Z,100077.71
2019-03-06T19:15:36.296Z,100075.95
2019-03-06T19:18:06.136Z,100071.28
2019-03-06T19:20:35.488Z,100063.58
2019-03-06T19:23:04.942Z,100064.61
2019-03-06T19:25:34.429Z,100061.05
2019-03-06T19:28:04.315Z,100065.34
2019-03-06T19:30:33.666Z,100061.98
2019-03-06T19:33:03.105Z,100062.55
2019-03-06T19:35:32.455Z,100054.39
2019-03-06T19:38:01.838Z,100045.66
2019-03-06T19:40:31.252Z,100046.77
2019-03-06T19:43:00.703Z,100040.45
2019-03-06T19:45:30.114Z,100030.80
2019-03-06T19:47:59.553Z,100025.86
2019-03-06T19:50:28.982Z,100024.83
2019-03-06T19:52:58.432Z,100028.92
2019-03-06T19:55:27.856Z,100028.46
2019-03-06T19:58:08.354Z,100028.46
2019-03-06T20:00:38.177Z,100020.66
2019-03-06T20:03:09.005Z,100008.86
2019-03-06T20:05:40.658Z,100005.45
2019-03-06T20:08:12.645Z,100013.14
2019-03-06T20:10:42.000Z,100011.30
2019-03-06T20:13:12.200Z,100016.97
2019-03-06T20:15:42.093Z,100016.97
2019-03-06T20:18:11.652Z,100014.09
2019-03-06T20:20:41.445Z,100015.28
2019-03-06T20:23:10.905Z,100021.90
2019-03-06T20:25:40.348Z,100011.65
2019-03-06T20:28:09.832Z,100016.77
2019-03-06T20:30:39.214Z,100009.55
2019-03-06T20:33:08.740Z,100011.65
2019-03-06T20:35:38.463Z,100005.52
2019-03-06T20:38:07.886Z,100003.11
2019-03-06T20:40:37.332Z,100004.25
2019-03-06T20:43:07.004Z,100003.32
2019-03-06T20:45:36.445Z,99995.43
2019-03-06T20:48:05.788Z,99998.11
2019-03-06T20:50:35.230Z,99994.48
2019-03-06T20:53:04.583Z,99986.79
2019-03-06T20:55:33.960Z,99984.66
2019-03-06T20:58:03.583Z,99985.68
2019-03-06T21:00:32.955Z,99985.49
2019-03-06T21:03:02.293Z,99980.48
2019-03-06T21:05:31.667Z,99974.70
2019-03-06T21:08:01.013Z,99973.41
2019-03-06T21:10:30.385Z,99964.41
2019-03-06T21:12:59.723Z,99966.35
2019-03-06T21:15:29.097Z,99955.95
2019-03-06T21:17:58.439Z,99947.95
2019-03-06T21:20:27.815Z,99946.86
2019-03-06T21:22:57.159Z,99947.41
2019-03-06T21:25:26.536Z,99941.09
2019-03-06T21:27:55.879Z,99937.66
2019-03-06T21:30:27.294Z,99939.80
2019-03-06T21:32:56.638Z,99934.41
2019-03-06T21:35:26.080Z,99932.56
2019-03-06T21:37:55.522Z,99921.39
2019-03-06T21:40:26.398Z,99917.69
2019-03-06T21:42:55.732Z,99914.89
2019-03-06T21:45:25.176Z,99907.40
2019-03-06T21:47:54.515Z,99905.61
2019-03-06T21:50:23.894Z,99904.80
2019-03-06T21:52:53.237Z,99902.17
2019-03-06T21:55:22.598Z,99892.22
2019-03-06T21:57:51.992Z,99887.21
2019-03-06T22:00:22.399Z,99890.73
2019-03-06T22:02:51.742Z,99883.69
2019-03-06T22:05:21.108Z,99880.36
2019-03-06T22:07:51.430Z,99877.58
2019-03-06T22:10:20.860Z,99873.59
2019-03-06T22:12:50.281Z,99878.30
2019-03-06T22:15:23.075Z,99865.03
2019-03-06T22:17:52.415Z,99864.37
2019-03-06T22:20:21.779Z,99864.00
2019-03-06T22:22:51.191Z,99859.72
2019-03-06T22:25:20.738Z,99856.27
2019-03-06T22:27:50.076Z,99855.89
2019-03-06T22:30:23.386Z,99847.55
2019-03-06T22:32:52.863Z,99847.74
2019-03-06T22:35:22.308Z,99844.48
2019-03-06T22:37:51.660Z,99837.88
2019-03-06T22:40:21.091Z,99848.20
2019-03-06T22:42:50.452Z,99841.63
2019-03-06T22:45:21.800Z,99837.16
2019-03-06T22:47:51.142Z,99834.28
2019-03-06T22:50:20.715Z,99831.50
2019-03-06T22:52:50.336Z,99820.83
2019-03-06T22:55:20.126Z,99813.67
2019-03-06T22:57:49.496Z,99810.89
2019-03-06T23:00:30.830Z,99798.53
2019-03-06T23:03:00.342Z,99790.27
2019-03-06T23:05:33.676Z,99792.11
2019-03-06T23:08:03.096Z,99791.30
2019-03-06T23:10:32.472Z,99793.91
2019-03-06T23:13:01.851Z,99788.78
2019-03-06T23:15:31.192Z,99785.38
2019-03-06T23:18:00.744Z,99780.83
2019-03-06T23:20:30.085Z,99780.84
2019-03-06T23:22:59.449Z,99771.92
2019-03-06T23:25:28.793Z,99769.71
2019-03-06T23:27:58.167Z,99766.34
2019-03-06T23:30:27.507Z,99756.48
2019-03-06T23:32:56.871Z,99753.16
2019-03-06T23:35:26.211Z,99752.42
2019-03-06T23:37:55.582Z,99750.67
2019-03-06T23:40:24.924Z,99743.26
2019-03-06T23:42:54.380Z,99738.89
2019-03-06T23:45:23.931Z,99728.12
2019-03-06T23:47:53.375Z,99728.31
2019-03-06T23:50:22.711Z,99724.98
2019-03-06T23:53:06.234Z,99726.48
2019-03-06T23:55:35.584Z,99712.00
2019-03-06T23:58:05.025Z,99711.08
